Time;durP1;ratioP1;P1;durP2;ratioP2;P2;SDS_P1;SDS_P2;PMS_P1;PMS_P2;Temp;Humidity;BMP_temperature;BMP_pressure;BME280_temperature;BME280_humidity;BME280_pressure;Samples;Min_cycle;Max_cycle;Signal;HPM_P1;HPM_P2
2023/05/11 00:02:25;;;;;;;3.40;3.10;;;;;;;;;;5051076;28;20485;-62
2023/05/11 00:04:51;;;;;;;4.05;3.75;;;;;;;;;;5051036;28;20401;-60
2023/05/11 00:07:17;;;;;;;3.28;3.08;;;;;;;;;;5051066;28;20832;-62
2023/05/11 00:09:43;;;;;;;3.72;3.42;;;;;;;;;;5050877;28;20402;-59
2023/05/11 00:12:09;;;;;;;3.35;3.10;;;;;;;;;;5050784;28;20400;-58
2023/05/11 00:14:35;;;;;;;3.80;3.50;;;;;;;;;;5051028;28;20402;-58
2023/05/11 00:17:03;;;;;;;3.90;3.60;;;;;;;;;;5050735;28;20507;-58
2023/05/11 00:19:30;;;;;;;3.88;3.58;;;;;;;;;;5050761;28;20451;-58
2023/05/11 00:21:57;;;;;;;4.28;3.90;;;;;;;;;;5050460;28;20768;-58
2023/05/11 00:24:23;;;;;;;3.75;3.45;;;;;;;;;;5050873;28;20405;-58
2023/05/11 00:26:49;;;;;;;3.92;3.63;;;;;;;;;;5050642;28;20409;-58
2023/05/11 00:29:15;;;;;;;4.05;3.75;;;;;;;;;;5050698;28;20393;-58
2023/05/11 00:31:41;;;;;;;4.00;3.60;;;;;;;;;;5050491;28;20409;-58
2023/05/11 00:34:08;;;;;;;4.50;4.10;;;;;;;;;;5050413;28;20415;-58
2023/05/11 00:36:34;;;;;;;4.13;3.83;;;;;;;;;;5050631;28;20421;-58
2023/05/11 00:39:00;;;;;;;4.00;3.70;;;;;;;;;;5050240;28;20484;-58
2023/05/11 00:41:26;;;;;;;3.92;3.63;;;;;;;;;;5050472;28;20436;-57
2023/05/11 00:43:52;;;;;;;4.25;3.95;;;;;;;;;;5050507;28;20436;-57
2023/05/11 00:46:18;;;;;;;3.95;3.65;;;;;;;;;;5050425;28;20398;-57
2023/05/11 00:48:44;;;;;;;4.70;4.32;;;;;;;;;;5050363;28;20478;-57
2023/05/11 00:51:12;;;;;;;4.50;4.20;;;;;;;;;;5050166;28;20903;-57
2023/05/11 00:53:38;;;;;;;4.22;3.92;;;;;;;;;;5050286;28;20409;-57
2023/05/11 00:56:04;;;;;;;4.30;4.00;;;;;;;;;;5050255;28;20397;-57
2023/05/11 00:58:31;;;;;;;4.47;4.07;;;;;;;;;;5050300;28;20401;-57
2023/05/11 01:00:57;;;;;;;4.80;4.40;;;;;;;;;;5049975;28;20500;-57
2023/05/11 01:03:23;;;;;;;4.80;4.40;;;;;;;;;;5050319;28;20477;-57
2023/05/11 01:05:52;;;;;;;4.25;3.95;;;;;;;;;;5050292;28;20401;-57
2023/05/11 01:08:22;;;;;;;4.43;4.03;;;;;;;;;;5050064;28;21012;-57
2023/05/11 01:10:50;;;;;;;4.47;4.17;;;;;;;;;;5050114;28;20932;-58
2023/05/11 01:13:19;;;;;;;4.45;4.15;;;;;;;;;;5049986;28;20940;-57
2023/05/11 01:15:47;;;;;;;4.40;4.10;;;;;;;;;;5050071;28;20521;-57
2023/05/11 01:18:16;;;;;;;4.43;4.13;;;;;;;;;;5049981;28;20449;-57
2023/05/11 01:20:43;;;;;;;4.57;4.20;;;;;;;;;;5049928;28;20657;-57
2023/05/11 01:23:24;;;;;;;4.70;4.30;;;;;;;;;;5049825;28;20473;-56
2023/05/11 01:26:00;;;;;;;4.60;4.30;;;;;;;;;;5050059;28;20805;-56
2023/05/11 01:28:37;;;;;;;4.60;4.30;;;;;;;;;;5050091;28;20910;-56
2023/05/11 01:31:06;;;;;;;5.20;4.80;;;;;;;;;;5049917;28;20450;-57
2023/05/11 01:33:34;;;;;;;5.10;4.70;;;;;;;;;;5049897;28;20490;-56
2023/05/11 01:36:03;;;;;;;4.78;4.38;;;;;;;;;;5049814;28;20451;-56
2023/05/11 01:38:32;;;;;;;5.25;4.85;;;;;;;;;;5049742;28;20405;-56
2023/05/11 01:40:59;;;;;;;4.70;4.40;;;;;;;;;;5049675;28;20497;-56
2023/05/11 01:43:27;;;;;;;5.50;5.10;;;;;;;;;;5049925;28;20503;-56
2023/05/11 01:45:55;;;;;;;5.05;4.72;;;;;;;;;;5049850;28;20440;-57
2023/05/11 01:48:24;;;;;;;5.00;4.57;;;;;;;;;;5049892;28;20405;-57
2023/05/11 01:50:50;;;;;;;5.20;4.80;;;;;;;;;;5049861;28;20408;-57
2023/05/11 01:53:17;;;;;;;4.78;4.38;;;;;;;;;;5049704;28;20420;-57
2023/05/11 01:55:45;;;;;;;5.55;5.15;;;;;;;;;;5049751;28;20822;-57
2023/05/11 01:58:12;;;;;;;5.38;4.97;;;;;;;;;;5049742;28;20417;-57
2023/05/11 02:00:39;;;;;;;5.32;4.93;;;;;;;;;;5049748;28;20485;-56
2023/05/11 02:03:05;;;;;;;5.07;4.68;;;;;;;;;;5049773;28;20404;-56
2023/05/11 02:05:33;;;;;;;5.90;5.40;;;;;;;;;;5049712;28;20445;-56
2023/05/11 02:08:00;;;;;;;6.05;5.65;;;;;;;;;;5052756;28;20937;-56
2023/05/11 02:10:27;;;;;;;5.47;5.07;;;;;;;;;;5053199;28;20404;-56
2023/05/11 02:12:53;;;;;;;5.68;5.28;;;;;;;;;;5053226;28;20776;-57
2023/05/11 02:15:20;;;;;;;6.30;5.72;;;;;;;;;;5053260;28;20405;-56
2023/05/11 02:17:46;;;;;;;6.07;5.57;;;;;;;;;;5053055;28;20459;-57
2023/05/11 02:20:13;;;;;;;6.10;5.60;;;;;;;;;;5052717;28;20903;-57
2023/05/11 02:22:41;;;;;;;6.13;5.63;;;;;;;;;;5053085;28;20409;-57
2023/05/11 02:25:08;;;;;;;5.68;5.28;;;;;;;;;;5052935;28;20471;-57
2023/05/11 02:27:34;;;;;;;5.50;5.10;;;;;;;;;;5053045;28;20555;-57
2023/05/11 02:30:00;;;;;;;5.93;5.43;;;;;;;;;;5052776;28;20397;-57
2023/05/11 02:32:28;;;;;;;5.93;5.43;;;;;;;;;;5052535;28;20951;-57
2023/05/11 02:34:58;;;;;;;5.70;5.30;;;;;;;;;;5052614;28;20423;-57
2023/05/11 02:37:25;;;;;;;5.80;5.30;;;;;;;;;;5052636;28;20856;-57
2023/05/11 02:39:55;;;;;;;6.00;5.60;;;;;;;;;;5052652;28;20420;-57
2023/05/11 02:42:22;;;;;;;6.38;5.78;;;;;;;;;;5052668;28;20425;-57
2023/05/11 02:44:53;;;;;;;6.25;5.75;;;;;;;;;;5052766;28;20409;-57
2023/05/11 02:47:20;;;;;;;6.18;5.68;;;;;;;;;;5052496;28;20446;-57
2023/05/11 02:49:49;;;;;;;6.25;5.75;;;;;;;;;;5052546;28;20492;-56
2023/05/11 02:52:15;;;;;;;5.95;5.45;;;;;;;;;;5052416;28;20442;-56
2023/05/11 02:54:42;;;;;;;6.28;5.78;;;;;;;;;;5052489;28;20425;-57
2023/05/11 02:57:09;;;;;;;6.00;5.50;;;;;;;;;;5052463;28;20401;-56
2023/05/11 02:59:35;;;;;;;6.43;5.93;;;;;;;;;;5052417;28;20462;-56
2023/05/11 03:02:01;;;;;;;6.78;6.28;;;;;;;;;;5052195;28;20413;-55
2023/05/11 03:04:28;;;;;;;6.57;5.97;;;;;;;;;;5052284;28;20447;-55
2023/05/11 03:06:54;;;;;;;6.20;5.70;;;;;;;;;;5052236;28;20462;-55
2023/05/11 03:09:20;;;;;;;6.40;5.90;;;;;;;;;;5052225;28;20764;-55
2023/05/11 03:11:46;;;;;;;6.40;5.90;;;;;;;;;;5052163;28;20420;-54
2023/05/11 03:14:14;;;;;;;6.93;6.30;;;;;;;;;;5051907;28;20555;-55
2023/05/11 03:16:40;;;;;;;6.40;5.90;;;;;;;;;;5051935;28;20442;-55
2023/05/11 03:19:07;;;;;;;6.47;5.97;;;;;;;;;;5051790;28;20405;-55
2023/05/11 03:21:33;;;;;;;6.68;6.18;;;;;;;;;;5052020;28;20531;-55
2023/05/11 03:24:00;;;;;;;7.40;6.80;;;;;;;;;;5051914;28;20481;-56
2023/05/11 03:26:28;;;;;;;7.20;6.60;;;;;;;;;;5051676;28;20480;-55
2023/05/11 03:28:55;;;;;;;6.80;6.30;;;;;;;;;;5051783;28;20434;-55
2023/05/11 03:31:22;;;;;;;6.40;5.90;;;;;;;;;;5051714;28;21102;-54
2023/05/11 03:33:48;;;;;;;6.80;6.20;;;;;;;;;;5051571;28;20417;-55
2023/05/11 03:36:14;;;;;;;6.28;5.78;;;;;;;;;;5051549;28;20400;-55
2023/05/11 03:38:41;;;;;;;6.38;5.80;;;;;;;;;;5051502;28;20882;-56
2023/05/11 03:41:07;;;;;;;6.00;5.50;;;;;;;;;;5051564;28;20464;-55
2023/05/11 03:43:34;;;;;;;6.65;6.05;;;;;;;;;;5051707;28;20421;-55
2023/05/11 03:46:01;;;;;;;6.32;5.78;;;;;;;;;;5051406;28;21012;-55
2023/05/11 03:48:29;;;;;;;5.50;5.00;;;;;;;;;;5051300;28;20420;-55
2023/05/11 03:50:55;;;;;;;6.23;5.53;;;;;;;;;;5051334;28;20474;-55
2023/05/11 03:53:21;;;;;;;6.65;6.05;;;;;;;;;;5051631;28;20409;-55
2023/05/11 03:55:48;;;;;;;6.82;6.18;;;;;;;;;;5051322;28;20466;-55
2023/05/11 03:58:15;;;;;;;6.80;6.10;;;;;;;;;;5051191;28;20405;-55
2023/05/11 04:00:41;;;;;;;7.40;6.70;;;;;;;;;;5051056;28;20413;-56
2023/05/11 04:03:08;;;;;;;6.32;5.82;;;;;;;;;;5051249;28;20899;-56
2023/05/11 04:05:35;;;;;;;5.82;5.32;;;;;;;;;;5051375;28;20428;-55
2023/05/11 04:08:02;;;;;;;6.20;5.60;;;;;;;;;;5050998;28;20488;-55
2023/05/11 04:10:28;;;;;;;6.43;5.82;;;;;;;;;;5050892;28;20401;-55
2023/05/11 04:12:54;;;;;;;6.63;6.10;;;;;;;;;;5050990;28;20489;-55
2023/05/11 04:15:20;;;;;;;6.75;6.25;;;;;;;;;;5050370;28;20397;-55
2023/05/11 04:17:46;;;;;;;7.40;6.80;;;;;;;;;;5050574;28;20804;-55
2023/05/11 04:20:12;;;;;;;6.72;6.22;;;;;;;;;;5050473;28;20985;-55
2023/05/11 04:22:40;;;;;;;7.80;7.20;;;;;;;;;;5050853;28;20401;-55
2023/05/11 04:25:06;;;;;;;8.38;7.68;;;;;;;;;;5050748;28;20442;-55
2023/05/11 04:27:33;;;;;;;7.63;7.03;;;;;;;;;;5050670;28;20407;-55
2023/05/11 04:29:59;;;;;;;8.10;7.40;;;;;;;;;;5050206;28;20389;-55
2023/05/11 04:32:25;;;;;;;8.02;7.43;;;;;;;;;;5050518;28;20401;-55
2023/05/11 04:34:51;;;;;;;8.18;7.50;;;;;;;;;;5050615;28;20536;-55
2023/05/11 04:37:17;;;;;;;8.80;8.10;;;;;;;;;;5050350;28;20892;-56
2023/05/11 04:39:44;;;;;;;8.27;7.57;;;;;;;;;;5050450;28;20425;-55
2023/05/11 04:42:10;;;;;;;7.95;7.25;;;;;;;;;;5050381;28;20444;-56
2023/05/11 04:44:36;;;;;;;8.15;7.50;;;;;;;;;;5050456;28;20428;-55
2023/05/11 04:47:02;;;;;;;7.83;7.23;;;;;;;;;;5050361;28;20489;-56
2023/05/11 04:49:28;;;;;;;8.23;7.63;;;;;;;;;;5050316;28;20894;-56
2023/05/11 04:51:55;;;;;;;7.55;6.95;;;;;;;;;;5050274;28;20412;-55
2023/05/11 04:54:20;;;;;;;7.68;7.07;;;;;;;;;;5050425;28;20393;-55
2023/05/11 04:56:48;;;;;;;7.80;7.15;;;;;;;;;;5050335;28;20886;-55
2023/05/11 04:59:14;;;;;;;7.93;7.32;;;;;;;;;;5050271;28;20389;-55
2023/05/11 05:01:40;;;;;;;7.80;7.20;;;;;;;;;;5050178;28;20795;-56
2023/05/11 05:04:06;;;;;;;7.27;6.77;;;;;;;;;;5050237;28;20408;-55
2023/05/11 05:06:33;;;;;;;7.53;6.93;;;;;;;;;;5050031;28;20887;-55
2023/05/11 05:08:58;;;;;;;7.22;6.63;;;;;;;;;;5050329;28;20481;-55
2023/05/11 05:11:25;;;;;;;7.63;7.03;;;;;;;;;;5050132;28;20492;-55
2023/05/11 05:13:52;;;;;;;7.13;6.53;;;;;;;;;;5050190;28;20401;-55
2023/05/11 05:16:18;;;;;;;8.02;7.32;;;;;;;;;;5049803;28;20416;-55
2023/05/11 05:18:44;;;;;;;7.00;6.50;;;;;;;;;;5049943;28;20716;-55
2023/05/11 05:21:10;;;;;;;7.75;6.97;;;;;;;;;;5049632;28;20425;-55
2023/05/11 05:23:36;;;;;;;8.52;7.82;;;;;;;;;;5049995;28;20389;-54
2023/05/11 05:26:02;;;;;;;8.02;7.32;;;;;;;;;;5050045;28;20416;-54
2023/05/11 05:28:28;;;;;;;7.88;7.25;;;;;;;;;;5049972;28;20742;-54
2023/05/11 05:30:55;;;;;;;7.60;7.00;;;;;;;;;;5049802;28;20401;-54
2023/05/11 05:33:21;;;;;;;7.45;6.85;;;;;;;;;;5049782;28;20416;-54
2023/05/11 05:35:47;;;;;;;8.38;7.68;;;;;;;;;;5050020;28;20455;-54
2023/05/11 05:38:13;;;;;;;8.77;8.07;;;;;;;;;;5049827;28;20816;-55
2023/05/11 05:40:39;;;;;;;8.05;7.35;;;;;;;;;;5051130;28;20822;-55
2023/05/11 05:43:08;;;;;;;7.43;6.82;;;;;;;;;;5053875;28;20443;-55
2023/05/11 05:45:34;;;;;;;8.43;7.72;;;;;;;;;;5053498;28;20799;-55
2023/05/11 05:48:02;;;;;;;9.40;8.65;;;;;;;;;;5053629;28;20404;-55
2023/05/11 05:50:28;;;;;;;8.18;7.57;;;;;;;;;;5053307;28;20453;-55
2023/05/11 05:52:54;;;;;;;7.50;6.90;;;;;;;;;;5053284;28;20492;-56
2023/05/11 05:55:21;;;;;;;7.88;7.28;;;;;;;;;;5053547;28;20389;-55
2023/05/11 05:57:47;;;;;;;8.63;7.82;;;;;;;;;;5053468;28;20448;-55
2023/05/11 06:00:13;;;;;;;8.00;7.40;;;;;;;;;;5053255;28;20436;-55
2023/05/11 06:02:40;;;;;;;9.23;8.50;;;;;;;;;;5053292;28;20405;-55
2023/05/11 06:05:08;;;;;;;8.20;7.60;;;;;;;;;;5053311;28;20401;-55
2023/05/11 06:07:34;;;;;;;8.10;7.50;;;;;;;;;;5053191;28;20507;-55
2023/05/11 06:10:00;;;;;;;8.52;7.82;;;;;;;;;;5053190;28;20480;-55
2023/05/11 06:12:26;;;;;;;8.70;8.00;;;;;;;;;;5052954;28;20616;-55
2023/05/11 06:14:52;;;;;;;9.23;8.40;;;;;;;;;;5053213;28;20416;-55
2023/05/11 06:17:18;;;;;;;9.20;8.50;;;;;;;;;;5052987;28;20496;-56
2023/05/11 06:19:44;;;;;;;8.50;7.88;;;;;;;;;;5053121;28;20488;-56
2023/05/11 06:22:11;;;;;;;8.80;8.10;;;;;;;;;;5052823;28;20405;-56
2023/05/11 06:24:37;;;;;;;8.35;7.70;;;;;;;;;;5052974;28;20465;-56
2023/05/11 06:27:03;;;;;;;8.30;7.70;;;;;;;;;;5052886;28;20484;-55
2023/05/11 06:29:30;;;;;;;9.15;8.45;;;;;;;;;;5052675;28;20420;-56
2023/05/11 06:31:56;;;;;;;8.18;7.57;;;;;;;;;;5052794;28;20462;-56
2023/05/11 06:34:22;;;;;;;9.55;8.80;;;;;;;;;;5052512;28;20412;-56
2023/05/11 06:36:48;;;;;;;8.70;8.00;;;;;;;;;;5052873;28;20481;-56
2023/05/11 06:39:16;;;;;;;9.15;8.45;;;;;;;;;;5052578;28;20960;-56
2023/05/11 06:41:42;;;;;;;9.35;8.65;;;;;;;;;;5052330;28;20420;-56
2023/05/11 06:44:08;;;;;;;9.10;8.40;;;;;;;;;;5052780;28;20427;-56
2023/05/11 06:46:34;;;;;;;8.82;8.13;;;;;;;;;;5052130;28;20410;-56
2023/05/11 06:49:00;;;;;;;9.40;8.60;;;;;;;;;;5052294;28;20401;-56
2023/05/11 06:51:26;;;;;;;9.80;9.00;;;;;;;;;;5051937;28;20407;-56
2023/05/11 06:53:52;;;;;;;9.60;8.85;;;;;;;;;;5051635;28;20401;-56
2023/05/11 06:56:20;;;;;;;8.90;8.20;;;;;;;;;;5052079;28;20442;-56
2023/05/11 06:58:46;;;;;;;10.60;9.77;;;;;;;;;;5051936;28;20520;-56
2023/05/11 07:01:13;;;;;;;10.00;9.20;;;;;;;;;;5051893;28;20508;-55
2023/05/11 07:03:39;;;;;;;9.80;9.00;;;;;;;;;;5051734;28;20902;-56
2023/05/11 07:06:05;;;;;;;8.30;7.60;;;;;;;;;;5052050;28;20402;-56
2023/05/11 07:08:32;;;;;;;9.48;8.77;;;;;;;;;;5051805;28;20389;-56
2023/05/11 07:10:58;;;;;;;8.48;7.72;;;;;;;;;;5051860;28;20393;-56
2023/05/11 07:13:26;;;;;;;8.80;8.10;;;;;;;;;;5051779;28;20432;-56
2023/05/11 07:15:52;;;;;;;9.18;8.45;;;;;;;;;;5051932;28;20449;-55
2023/05/11 07:18:18;;;;;;;9.23;8.43;;;;;;;;;;5050849;28;20460;-57
2023/05/11 07:20:48;;;;;;;9.30;8.60;;;;;;;;;;5051428;28;20425;-58
2023/05/11 07:23:14;;;;;;;8.85;8.15;;;;;;;;;;5051571;28;20757;-60
2023/05/11 07:25:40;;;;;;;9.15;8.45;;;;;;;;;;5051273;28;20488;-59
2023/05/11 07:28:06;;;;;;;10.32;9.50;;;;;;;;;;5051626;28;20393;-58
2023/05/11 07:30:34;;;;;;;9.43;8.63;;;;;;;;;;5051319;28;20445;-59
2023/05/11 07:33:01;;;;;;;9.98;9.18;;;;;;;;;;5051314;28;20454;-58
2023/05/11 07:35:27;;;;;;;9.35;8.65;;;;;;;;;;5051021;28;20436;-58
2023/05/11 07:37:53;;;;;;;10.60;9.70;;;;;;;;;;5051355;28;20734;-58
2023/05/11 07:40:19;;;;;;;9.40;8.60;;;;;;;;;;5051214;28;20405;-58
2023/05/11 07:42:45;;;;;;;9.52;8.73;;;;;;;;;;5051272;28;20772;-58
2023/05/11 07:45:11;;;;;;;9.02;8.25;;;;;;;;;;5051074;28;20405;-58
2023/05/11 07:47:38;;;;;;;7.90;7.30;;;;;;;;;;5051017;28;20393;-58
2023/05/11 07:50:05;;;;;;;8.85;8.15;;;;;;;;;;5051212;28;20480;-58
2023/05/11 07:52:31;;;;;;;8.93;8.23;;;;;;;;;;5050843;28;20509;-58
2023/05/11 07:54:57;;;;;;;9.00;8.30;;;;;;;;;;5050968;28;20894;-58
2023/05/11 07:57:23;;;;;;;9.23;8.52;;;;;;;;;;5050923;28;20435;-58
2023/05/11 07:59:50;;;;;;;7.63;7.03;;;;;;;;;;5050741;28;20828;-58
2023/05/11 08:02:17;;;;;;;9.10;8.30;;;;;;;;;;5050922;28;20409;-59
2023/05/11 08:04:44;;;;;;;8.48;7.78;;;;;;;;;;5049669;28;20416;-58
2023/05/11 08:07:10;;;;;;;9.93;9.13;;;;;;;;;;5050831;28;20421;-60
2023/05/11 08:09:36;;;;;;;8.60;7.90;;;;;;;;;;5050803;28;20404;-57
2023/05/11 08:12:03;;;;;;;8.00;7.40;;;;;;;;;;5050825;28;20412;-57
2023/05/11 08:14:29;;;;;;;8.75;8.00;;;;;;;;;;5050489;28;20402;-56
2023/05/11 08:16:55;;;;;;;8.70;8.00;;;;;;;;;;5050481;28;20408;-57
2023/05/11 08:19:21;;;;;;;8.82;8.15;;;;;;;;;;5050727;28;20437;-56
2023/05/11 08:21:48;;;;;;;9.13;8.30;;;;;;;;;;5050485;28;20417;-55
2023/05/11 08:24:14;;;;;;;9.85;9.07;;;;;;;;;;5050453;28;20414;-56
2023/05/11 08:26:40;;;;;;;10.40;9.60;;;;;;;;;;5050372;28;20408;-57
2023/05/11 08:29:07;;;;;;;10.50;9.60;;;;;;;;;;5050509;28;20409;-57
2023/05/11 08:31:33;;;;;;;9.17;8.47;;;;;;;;;;5050278;28;20409;-57
2023/05/11 08:33:59;;;;;;;8.85;8.15;;;;;;;;;;5050101;28;20463;-57
2023/05/11 08:36:25;;;;;;;8.10;7.45;;;;;;;;;;5050420;28;20401;-57
2023/05/11 08:38:52;;;;;;;7.65;7.05;;;;;;;;;;5050583;28;21071;-57
2023/05/11 08:41:18;;;;;;;9.32;8.63;;;;;;;;;;5050617;28;20421;-54
2023/05/11 08:43:45;;;;;;;9.13;8.43;;;;;;;;;;5050496;28;20462;-55
2023/05/11 08:46:13;;;;;;;9.20;8.50;;;;;;;;;;5050429;28;20451;-55
2023/05/11 08:48:39;;;;;;;8.75;8.05;;;;;;;;;;5050302;28;20404;-55
2023/05/11 08:51:06;;;;;;;8.93;8.23;;;;;;;;;;5050492;28;20911;-56
2023/05/11 08:53:32;;;;;;;7.78;7.18;;;;;;;;;;5048389;28;20480;-56
2023/05/11 08:56:01;;;;;;;9.02;8.27;;;;;;;;;;5050072;28;20408;-56
2023/05/11 08:58:27;;;;;;;8.80;8.00;;;;;;;;;;5049946;28;20394;-56
2023/05/11 09:00:53;;;;;;;9.38;8.57;;;;;;;;;;5049591;28;20900;-56
2023/05/11 09:03:20;;;;;;;9.07;8.27;;;;;;;;;;5049864;28;20451;-56
2023/05/11 09:05:46;;;;;;;8.97;8.17;;;;;;;;;;5049523;28;20411;-56
2023/05/11 09:08:13;;;;;;;8.48;7.68;;;;;;;;;;5049672;28;20405;-56
2023/05/11 09:10:41;;;;;;;6.97;6.37;;;;;;;;;;5050811;28;20203;-56
2023/05/11 09:13:08;;;;;;;7.53;6.83;;;;;;;;;;5051040;28;20206;-56
2023/05/11 09:15:34;;;;;;;7.83;6.23;;;;;;;;;;5052045;28;20206;-56
2023/05/11 09:18:01;;;;;;;6.53;5.93;;;;;;;;;;5054867;28;20243;-56
2023/05/11 09:20:28;;;;;;;7.00;6.40;;;;;;;;;;5054962;28;20229;-56
2023/05/11 09:22:54;;;;;;;6.30;5.80;;;;;;;;;;5054842;28;20201;-56
2023/05/11 09:25:21;;;;;;;5.80;5.30;;;;;;;;;;5055015;28;20199;-56
2023/05/11 09:27:47;;;;;;;6.63;6.03;;;;;;;;;;5054742;28;20208;-56
2023/05/11 09:30:16;;;;;;;6.77;6.00;;;;;;;;;;5054731;28;20226;-56
2023/05/11 09:32:49;;;;;;;7.07;6.47;;;;;;;;;;5058250;28;20210;-56
2023/05/11 09:35:19;;;;;;;5.87;5.37;;;;;;;;;;5054912;28;20327;-56
2023/05/11 09:37:55;;;;;;;6.77;6.17;;;;;;;;;;5054099;28;20198;-56
2023/05/11 09:40:21;;;;;;;6.70;6.10;;;;;;;;;;5055031;28;20294;-56
2023/05/11 09:42:47;;;;;;;6.20;5.60;;;;;;;;;;5054619;28;20595;-56
2023/05/11 09:45:34;;;;;;;6.13;5.63;;;;;;;;;;5054617;28;20197;-56
2023/05/11 09:48:01;;;;;;;6.70;6.10;;;;;;;;;;5054576;28;20203;-56
2023/05/11 09:50:31;;;;;;;7.13;6.53;;;;;;;;;;5054476;28;20197;-56
2023/05/11 09:52:57;;;;;;;7.87;6.40;;;;;;;;;;5054366;28;20219;-55
2023/05/11 09:55:24;;;;;;;7.40;6.70;;;;;;;;;;5054329;28;20925;-57
2023/05/11 09:57:53;;;;;;;6.13;5.63;;;;;;;;;;5054471;28;20201;-56
2023/05/11 10:00:21;;;;;;;6.20;5.70;;;;;;;;;;5054304;28;20307;-56
2023/05/11 10:02:58;;;;;;;5.30;4.90;;;;;;;;;;5054139;28;20220;-56
2023/05/11 10:05:24;;;;;;;5.73;5.23;;;;;;;;;;5054089;28;20250;-55
2023/05/11 10:07:56;;;;;;;6.00;5.40;;;;;;;;;;5054264;28;20198;-55
2023/05/11 10:10:22;;;;;;;6.23;5.70;;;;;;;;;;5054293;28;20190;-56
2023/05/11 10:12:48;;;;;;;5.30;4.80;;;;;;;;;;5054098;28;20201;-56
2023/05/11 10:15:15;;;;;;;5.77;5.27;;;;;;;;;;5053872;28;20294;-56
2023/05/11 10:17:43;;;;;;;7.07;6.00;;;;;;;;;;5053550;28;20202;-56
2023/05/11 10:20:10;;;;;;;6.17;5.67;;;;;;;;;;5053833;28;20648;-56
2023/05/11 10:22:36;;;;;;;5.17;4.70;;;;;;;;;;5054132;28;20213;-56
2023/05/11 10:25:04;;;;;;;5.80;5.30;;;;;;;;;;5053855;28;20254;-56
2023/05/11 10:27:30;;;;;;;6.03;5.50;;;;;;;;;;5052979;28;20204;-56
2023/05/11 10:29:58;;;;;;;5.47;4.97;;;;;;;;;;5053873;28;20213;-56
2023/05/11 10:32:24;;;;;;;5.17;4.73;;;;;;;;;;5054105;28;20279;-56
2023/05/11 10:34:52;;;;;;;5.40;4.90;;;;;;;;;;5053864;28;20259;-56
2023/05/11 10:37:19;;;;;;;5.80;5.30;;;;;;;;;;5054009;28;20291;-55
2023/05/11 10:39:46;;;;;;;4.93;4.53;;;;;;;;;;5053796;28;20197;-56
2023/05/11 10:42:22;;;;;;;7.30;5.90;;;;;;;;;;5053912;28;20203;-56
2023/05/11 10:45:05;;;;;;;6.13;5.60;;;;;;;;;;5053749;28;20188;-56
2023/05/11 10:47:52;;;;;;;5.70;5.20;;;;;;;;;;5053579;28;20196;-56
2023/05/11 10:50:44;;;;;;;5.67;5.17;;;;;;;;;;5053821;28;20656;-55
2023/05/11 10:53:19;;;;;;;5.97;5.43;;;;;;;;;;5053585;28;20207;-56
2023/05/11 10:55:56;;;;;;;5.80;5.30;;;;;;;;;;5053604;28;20205;-56
2023/05/11 10:58:32;;;;;;;5.73;5.23;;;;;;;;;;5053761;28;20220;-57
2023/05/11 11:01:16;;;;;;;6.37;5.83;;;;;;;;;;5053502;28;20220;-57
2023/05/11 11:03:54;;;;;;;5.97;5.40;;;;;;;;;;5053408;28;20212;-57
2023/05/11 11:06:25;;;;;;;5.73;5.10;;;;;;;;;;5053562;28;20212;-55
2023/05/11 11:08:57;;;;;;;6.53;5.93;;;;;;;;;;5053438;28;20216;-56
2023/05/11 11:11:34;;;;;;;8.37;5.83;;;;;;;;;;5053298;28;20193;-57
2023/05/11 11:14:02;;;;;;;6.47;5.83;;;;;;;;;;5053122;28;20208;-56
2023/05/11 11:16:28;;;;;;;6.33;5.73;;;;;;;;;;5053336;28;20485;-56
2023/05/11 11:19:09;;;;;;;6.60;5.90;;;;;;;;;;5052994;28;20254;-56
2023/05/11 11:21:40;;;;;;;5.90;5.30;;;;;;;;;;5052998;28;20328;-56
2023/05/11 11:24:06;;;;;;;6.00;5.50;;;;;;;;;;5053124;28;20211;-56
2023/05/11 11:26:49;;;;;;;5.70;5.20;;;;;;;;;;5053107;28;20202;-56
2023/05/11 11:29:15;;;;;;;6.47;5.87;;;;;;;;;;5052959;28;20198;-56
2023/05/11 11:31:41;;;;;;;6.77;6.17;;;;;;;;;;5052779;28;20193;-56
2023/05/11 11:34:41;;;;;;;7.00;6.30;;;;;;;;;;5052752;28;20237;-56
2023/05/11 11:37:08;;;;;;;5.83;5.33;;;;;;;;;;4991564;28;20679;-56
2023/05/11 11:39:53;;;;;;;6.07;5.57;;;;;;;;;;4991274;28;20207;-56
2023/05/11 11:42:32;;;;;;;6.03;5.43;;;;;;;;;;5027297;28;20215;-57
2023/05/11 11:45:14;;;;;;;5.87;5.27;;;;;;;;;;5052560;28;20217;-56
2023/05/11 11:47:41;;;;;;;6.10;5.50;;;;;;;;;;5052487;28;20269;-56
2023/05/11 11:50:12;;;;;;;7.10;5.47;;;;;;;;;;5052654;28;20202;-55
2023/05/11 11:52:40;;;;;;;6.17;5.57;;;;;;;;;;5054473;28;20205;-55
2023/05/11 11:55:06;;;;;;;7.83;7.10;;;;;;;;;;5052491;28;20202;-56
2023/05/11 11:57:49;;;;;;;6.40;5.80;;;;;;;;;;5057907;28;20203;-56
2023/05/11 12:00:20;;;;;;;6.70;6.10;;;;;;;;;;5052059;28;20304;-56
2023/05/11 12:02:46;;;;;;;6.73;6.13;;;;;;;;;;5052268;28;20206;-56
2023/05/11 12:05:13;;;;;;;6.63;5.97;;;;;;;;;;5052240;28;20222;-56
2023/05/11 12:07:41;;;;;;;6.77;6.07;;;;;;;;;;5052265;28;20236;-57
2023/05/11 12:10:10;;;;;;;8.07;7.27;;;;;;;;;;5052191;28;20261;-56
2023/05/11 12:12:37;;;;;;;7.87;7.17;;;;;;;;;;5052359;28;20262;-55
2023/05/11 12:15:05;;;;;;;8.97;7.87;;;;;;;;;;5051989;28;20292;-56
2023/05/11 12:17:33;;;;;;;8.00;7.20;;;;;;;;;;5052187;28;20203;-56
2023/05/11 12:20:12;;;;;;;8.20;7.00;;;;;;;;;;5051798;28;20650;-56
2023/05/11 12:22:38;;;;;;;7.73;6.93;;;;;;;;;;5052245;28;20207;-56
2023/05/11 12:25:06;;;;;;;8.57;7.53;;;;;;;;;;5052040;28;20206;-55
2023/05/11 12:27:32;;;;;;;7.77;7.07;;;;;;;;;;5051924;28;20603;-55
2023/05/11 12:29:59;;;;;;;9.37;7.77;;;;;;;;;;5051732;28;20220;-55
2023/05/11 12:32:26;;;;;;;7.67;6.97;;;;;;;;;;5051867;28;20690;-56
2023/05/11 12:35:00;;;;;;;9.40;8.23;;;;;;;;;;5051645;28;20738;-56
2023/05/11 12:37:26;;;;;;;10.33;8.43;;;;;;;;;;5051747;28;20285;-55
2023/05/11 12:39:54;;;;;;;10.03;8.43;;;;;;;;;;5051860;28;20226;-55
2023/05/11 12:42:21;;;;;;;9.97;8.67;;;;;;;;;;5051882;28;20275;-55
2023/05/11 12:44:47;;;;;;;9.17;8.20;;;;;;;;;;5052004;28;20628;-55
2023/05/11 12:47:14;;;;;;;9.57;8.57;;;;;;;;;;5051732;28;20200;-56
2023/05/11 12:49:41;;;;;;;8.60;7.70;;;;;;;;;;5051156;28;20196;-55
2023/05/11 12:52:07;;;;;;;12.90;7.53;;;;;;;;;;5051459;28;20193;-56
2023/05/11 12:54:36;;;;;;;9.97;8.40;;;;;;;;;;5051682;28;20207;-56
2023/05/11 12:57:02;;;;;;;9.50;8.23;;;;;;;;;;5051372;28;20694;-56
2023/05/11 12:59:34;;;;;;;9.33;8.10;;;;;;;;;;5051446;28;20200;-55
2023/05/11 13:02:07;;;;;;;10.20;8.60;;;;;;;;;;5051505;28;20227;-55
2023/05/11 13:04:33;;;;;;;10.43;8.70;;;;;;;;;;5051414;28;20208;-54
2023/05/11 13:06:59;;;;;;;10.87;8.93;;;;;;;;;;5051084;28;20250;-55
2023/05/11 13:09:26;;;;;;;12.83;9.13;;;;;;;;;;5051193;28;20203;-56
2023/05/11 13:12:06;;;;;;;11.07;8.40;;;;;;;;;;5051051;28;20194;-56
2023/05/11 13:14:33;;;;;;;9.33;8.00;;;;;;;;;;5052236;28;20204;-56
2023/05/11 13:16:59;;;;;;;9.13;8.17;;;;;;;;;;5051262;28;20626;-56
2023/05/11 13:19:30;;;;;;;10.07;8.17;;;;;;;;;;5051172;28;20204;-55
2023/05/11 13:21:56;;;;;;;10.33;8.00;;;;;;;;;;5051465;28;20247;-60
2023/05/11 13:24:22;;;;;;;9.73;8.43;;;;;;;;;;5051321;28;20199;-56
2023/05/11 13:26:48;;;;;;;10.10;8.63;;;;;;;;;;5051766;28;20302;-56
2023/05/11 13:29:15;;;;;;;9.50;8.50;;;;;;;;;;5050041;28;20410;-56
2023/05/11 13:31:45;;;;;;;12.65;10.40;;;;;;;;;;5049987;28;20401;-55
2023/05/11 13:34:12;;;;;;;10.55;8.75;;;;;;;;;;5049775;28;20476;-56
2023/05/11 13:36:38;;;;;;;9.68;8.15;;;;;;;;;;5050272;28;20870;-56
2023/05/11 13:39:04;;;;;;;9.40;8.27;;;;;;;;;;5049899;28;20945;-56
2023/05/11 13:41:31;;;;;;;10.35;9.10;;;;;;;;;;5049854;28;20451;-55
2023/05/11 13:43:57;;;;;;;9.55;8.55;;;;;;;;;;5050265;28;20480;-55
2023/05/11 13:46:23;;;;;;;9.70;8.70;;;;;;;;;;5049886;28;20400;-55
2023/05/11 13:48:50;;;;;;;7.88;7.07;;;;;;;;;;5050057;28;20478;-56
2023/05/11 13:51:16;;;;;;;9.35;8.30;;;;;;;;;;5049589;28;20819;-56
2023/05/11 13:53:43;;;;;;;8.38;7.55;;;;;;;;;;5049779;28;20443;-56
2023/05/11 13:56:10;;;;;;;7.70;6.90;;;;;;;;;;5049668;28;20423;-56
2023/05/11 13:58:36;;;;;;;8.30;7.50;;;;;;;;;;5049685;28;20787;-55
2023/05/11 14:01:02;;;;;;;8.93;8.02;;;;;;;;;;5049900;28;20413;-56
2023/05/11 14:03:30;;;;;;;8.32;7.53;;;;;;;;;;5053221;28;20481;-56
2023/05/11 14:05:57;;;;;;;8.30;7.50;;;;;;;;;;5053198;28;20393;-56
2023/05/11 14:08:23;;;;;;;9.75;7.85;;;;;;;;;;5053241;28;20423;-56
2023/05/11 14:10:49;;;;;;;8.07;7.07;;;;;;;;;;5053332;28;20875;-56
2023/05/11 14:13:15;;;;;;;7.82;7.03;;;;;;;;;;5052939;28;20409;-56
2023/05/11 14:15:41;;;;;;;8.20;7.40;;;;;;;;;;5053002;28;20397;-57
2023/05/11 14:18:07;;;;;;;7.60;6.90;;;;;;;;;;5053054;28;20404;-56
2023/05/11 14:20:34;;;;;;;7.68;6.97;;;;;;;;;;5053093;28;20414;-56
2023/05/11 14:23:02;;;;;;;8.30;7.50;;;;;;;;;;5052919;28;20394;-56
2023/05/11 14:25:28;;;;;;;8.85;7.97;;;;;;;;;;5053076;28;20408;-56
2023/05/11 14:27:54;;;;;;;7.80;7.00;;;;;;;;;;5060033;28;20400;-57
2023/05/11 14:30:20;;;;;;;8.87;7.97;;;;;;;;;;5072876;28;20439;-57
2023/05/11 14:32:46;;;;;;;8.30;7.50;;;;;;;;;;5072937;28;20464;-56
2023/05/11 14:35:12;;;;;;;9.90;8.37;;;;;;;;;;5072528;28;20407;-56
2023/05/11 14:37:38;;;;;;;8.05;7.35;;;;;;;;;;5072839;28;20396;-57
2023/05/11 14:40:06;;;;;;;9.73;8.68;;;;;;;;;;5072855;28;20424;-57
2023/05/11 14:42:32;;;;;;;8.75;7.95;;;;;;;;;;5072591;28;20412;-57
2023/05/11 14:44:58;;;;;;;8.93;8.02;;;;;;;;;;5072808;28;20529;-57
2023/05/11 14:47:24;;;;;;;8.90;8.00;;;;;;;;;;5072524;28;20920;-57